Latest Weather Observations for Sydney Airport

IDN60801

Issued at 8:12 pm EDT Saturday 16 February 2019 (issued every 10 minutes, with the page automatically refreshed every 10 minutes)

About weather observations | Map of weather stations | Latest weather observations for NSW | Other Formats
Station Details ID: 066037 Name: SYDNEY AIRPORT AMO Lat: -33.95 Lon: 151.17 Height: 6.0 m
Data from the previous 72 hours. | See also: Recent months at Sydney Airport
Date/Time
EDT
Temp
°C
App
Temp
°C
Dew
Point
°C
Rel
Hum
%
Delta-T
°C
Wind Press
QNH
hPa
Press
MSL
hPa
Rain since
9am
mm
Dir  Spd
km/h
Gust
km/h
Spd
kts
Gust
kts
16/08:00pm 24.8 22.9 16.8 61 4.9 NE 22 30 12 16 1016.9 1016.9 0.0
16/07:30pm 24.9 22.0 16.1 58 5.4 NE 26 35 14 19 1016.7 1016.7 0.0
16/07:00pm 25.0 21.3 15.9 57 5.5 NE 30 37 16 20 1016.7 1016.7 0.0
16/06:30pm 25.4 21.3 14.8 52 6.3 NE 30 39 16 21 1016.8 1016.8 0.0
16/06:00pm 25.7 21.0 13.2 46 7.3 NE 30 37 16 20 1017.0 1017.0 0.0
16/05:30pm 25.7 20.8 14.2 49 6.8 ENE 33 41 18 22 1017.0 1017.0 0.0
16/05:00pm 26.4 21.4 13.9 46 7.4 ENE 33 39 18 21 1017.2 1017.2 0.0
16/04:30pm 26.7 22.6 14.8 48 7.2 ENE 30 37 16 20 1017.3 1017.3 0.0
16/04:00pm 26.9 21.7 12.9 42 8.2 ENE 32 37 17 20 1017.6 1017.6 0.0
16/03:30pm 26.9 22.3 13.6 44 7.9 ENE 30 37 16 20 1017.9 1017.9 0.0
16/03:00pm 26.8 22.4 14.2 46 7.5 ENE 30 33 16 18 1018.4 1018.4 0.0
16/02:30pm 27.5 23.7 12.3 39 8.8 NE 24 33 13 18 1018.9 1018.9 0.0
16/02:00pm 27.1 22.5 12.3 39 8.5 NE 28 37 15 20 1019.2 1019.2 0.0
16/01:30pm 26.8 22.9 12.1 40 8.5 NE 24 35 13 19 1019.5 1019.5 0.0
16/01:00pm 28.6 24.3 12.1 36 9.6 ENE 26 35 14 19 1019.8 1019.8 0.0
16/12:30pm 27.6 24.4 12.0 38 9.0 ENE 20 30 11 16 1020.1 1020.1 0.0
16/12:00pm 27.8 25.1 13.0 40 8.7 ENE 19 30 10 16 1020.6 1020.6 0.0
16/11:30am 27.6 27.3 14.3 44 8.0 SSE 9 13 5 7 1020.9 1020.9 0.0
16/11:00am 26.5 25.2 13.6 45 7.6 NE 13 20 7 11 1021.3 1021.3 0.0
16/10:30am 25.8 24.9 14.9 51 6.5 NNW 13 19 7 10 1021.5 1021.5 0.0
16/10:00am 24.9 24.2 14.4 52 6.2 N 11 19 6 10 1021.8 1021.8 0.0
16/09:30am 24.4 24.1 14.5 54 5.9 WNW 9 17 5 9 1021.8 1021.8 0.0
16/09:00am 23.9 23.7 14.6 56 5.5 WNW 9 17 5 9 1021.8 1021.8 0.0
16/08:30am 22.2 22.4 14.6 62 4.5 WNW 7 9 4 5 1021.9 1021.9 0.0
16/08:00am 22.2 21.9 14.3 61 4.6 NW 9 11 5 6 1021.8 1021.8 0.0
16/07:30am 20.9 20.9 14.1 65 3.9 NW 7 9 4 5 1021.5 1021.5 0.0
16/07:00am 20.6 20.2 14.0 66 3.8 NW 9 13 5 7 1021.5 1021.5 0.0
16/06:30am 20.9 20.9 14.1 65 3.9 NW 7 13 4 7 1021.3 1021.3 0.0
16/06:00am 20.6 20.5 14.0 66 3.8 NNW 7 9 4 5 1021.0 1021.0 0.0
16/05:30am 21.0 21.0 14.2 65 4.0 NW 7 7 4 4 1021.0 1021.0 0.0
16/05:00am 20.6 20.5 14.0 66 3.8 WNW 7 11 4 6 1021.0 1021.0 0.0
16/04:30am 20.8 20.2 14.5 67 3.7 W 11 13 6 7 1021.1 1021.1 0.0
16/04:00am 20.8 20.5 14.5 67 3.7 WNW 9 11 5 6 1021.3 1021.3 0.0
16/03:30am 20.6 20.4 14.7 69 3.5 WNW 9 11 5 6 1021.4 1021.4 0.0
16/03:00am 20.4 20.2 14.7 70 3.3 WNW 9 11 5 6 1021.8 1021.8 0.0
16/02:30am 21.0 20.8 14.6 67 3.7 WNW 9 11 5 6 1022.0 1022.0 0.0
16/02:00am 21.6 21.4 14.7 65 4.0 WNW 9 11 5 6 1022.2 1022.2 0.0
16/01:30am 22.4 22.2 14.8 62 4.5 NW 9 11 5 6 1022.6 1022.6 0.0
16/01:00am 22.6 22.4 14.7 61 4.6 WNW 9 11 5 6 1023.0 1023.0 0.0
16/12:30am 22.4 22.1 14.5 61 4.6 NW 9 11 5 6 1023.3 1023.3 0.0
16/12:00am 23.1 23.5 14.7 59 5.0 N 6 7 3 4 1023.5 1023.5 0.0
 
Date/Time
EDT
Temp
°C
App
Temp
°C
Dew
Point
°C
Rel
Hum
%
Delta-T
°C
Wind Press
QNH
hPa
Press
MSL
hPa
Rain since
9am
mm
Dir  Spd
km/h
Gust
km/h
Spd
kts
Gust
kts
15/11:30pm 22.6 22.6 14.2 59 4.9 N 7 7 4 4 1023.6 1023.6 0.0
15/11:00pm 22.5 22.0 13.8 58 5.0 NE 9 9 5 5 1023.8 1023.8 0.0
15/10:30pm 22.6 22.0 13.4 56 5.3 NE 9 13 5 7 1024.0 1024.0 0.0
15/10:00pm 23.0 22.1 13.8 56 5.3 NE 11 15 6 8 1023.9 1023.9 0.0
15/09:30pm 22.7 21.3 13.5 56 5.3 NE 13 15 7 8 1023.8 1023.8 0.0
15/09:00pm 23.0 20.9 13.5 55 5.5 NE 17 19 9 10 1023.4 1023.4 0.0
15/08:30pm 23.0 20.5 13.5 55 5.5 NE 19 24 10 13 1023.2 1023.2 0.0
15/08:00pm 23.4 20.6 13.3 53 5.8 ENE 20 28 11 15 1022.9 1022.9 0.0
15/07:30pm 23.9 21.0 12.8 49 6.4 NE 20 26 11 14 1022.7 1022.7 0.0
15/07:00pm 24.0 21.0 12.6 49 6.5 ENE 20 26 11 14 1022.4 1022.4 0.0
15/06:30pm 24.1 20.6 12.1 47 6.8 E 22 30 12 16 1022.1 1022.1 0.0
15/06:00pm 24.7 21.6 12.3 46 7.1 E 20 30 11 16 1022.1 1022.1 0.0
15/05:30pm 25.0 22.0 12.6 46 7.1 E 20 32 11 17 1022.2 1022.2 0.0
15/05:00pm 25.1 22.1 12.7 46 7.1 E 20 30 11 16 1022.1 1022.1 0.0
15/04:30pm 25.6 22.9 12.8 45 7.4 E 19 32 10 17 1022.1 1022.1 0.0
15/04:00pm 25.9 22.6 12.7 44 7.6 ENE 22 28 12 15 1022.1 1022.1 0.0
15/03:30pm 25.8 21.8 11.9 42 7.9 E 24 33 13 18 1022.2 1022.2 0.0
15/03:00pm 26.1 22.1 11.8 41 8.1 E 24 32 13 17 1022.4 1022.4 0.0
15/02:30pm 26.1 21.7 11.8 41 8.2 E 26 33 14 18 1022.8 1022.8 0.0
15/02:00pm 26.1 22.4 11.5 40 8.3 E 22 30 12 16 1023.1 1023.1 0.0
15/01:30pm 25.6 22.7 12.8 45 7.4 ENE 20 30 11 16 1023.1 1023.1 0.0
15/01:00pm 24.7 21.6 11.6 44 7.4 ENE 19 30 10 16 1023.4 1023.4 0.0
15/12:30pm 25.1 22.3 11.3 42 7.8 NE 17 26 9 14 1023.6 1023.6 0.0
15/12:00pm 25.3 24.3 12.2 44 7.5 NE 9 17 5 9 1023.9 1023.9 0.0
15/11:30am 24.3 23.6 14.4 54 5.9 SSE 11 15 6 8 1024.3 1024.3 0.0
15/11:00am 24.0 23.2 12.9 50 6.4 NW 9 19 5 10 1024.3 1024.3 0.0
15/10:30am 23.9 23.6 13.4 51 6.1 W 7 11 4 6 1024.3 1024.3 0.0
15/10:00am 25.1 24.9 14.6 52 6.2 WSW 9 13 5 7 1024.3 1024.3 0.0
15/09:30am 23.3 22.9 14.0 56 5.4 W 9 15 5 8 1024.1 1024.1 0.0
15/09:00am 23.6 23.0 13.5 53 5.8 WNW 9 13 5 7 1024.0 1024.0 0.0
15/08:30am 22.4 21.8 13.5 57 5.1 NW 9 11 5 6 1023.8 1023.8 0.0
15/08:00am 21.3 20.9 14.0 63 4.2 NW 9 11 5 6 1023.6 1023.6 0.0
15/07:30am 21.8 22.2 15.4 67 3.8 NW 7 11 4 6 1023.4 1023.4 0.0
15/07:00am 19.8 19.8 14.2 70 3.2 W 7 11 4 6 1023.2 1023.2 0.0
15/06:30am 19.8 20.5 14.4 71 3.1 WNW 4 11 2 6 1022.9 1022.9 0.0
15/06:00am 20.3 21.7 14.4 69 3.4 CALM 0 0 0 0 1022.6 1022.6 0.0
15/05:30am 20.1 20.3 14.2 69 3.4 W 6 7 3 4 1022.5 1022.5 0.0
15/05:00am 20.1 20.3 14.7 71 3.1 W 7 7 4 4 1022.4 1022.4 0.0
15/04:30am 19.5 19.2 14.3 72 3.0 W 9 11 5 6 1022.3 1022.3 0.0
15/04:00am 19.8 19.5 14.4 71 3.1 WNW 9 9 5 5 1022.2 1022.2 0.0
15/03:30am 19.9 19.6 14.5 71 3.1 NW 9 11 5 6 1022.1 1022.1 0.0
15/03:00am 20.0 19.7 14.4 70 3.2 NW 9 11 5 6 1022.0 1022.0 0.0
15/02:30am 20.6 20.3 14.5 68 3.6 NW 9 11 5 6 1021.9 1021.9 0.0
15/02:00am 21.0 20.8 14.6 67 3.7 NW 9 11 5 6 1021.9 1021.9 0.0
15/01:30am 21.9 21.7 14.8 64 4.2 N 9 9 5 5 1022.0 1022.0 0.0
15/01:00am 22.1 21.3 15.0 64 4.2 NNE 13 15 7 8 1022.0 1022.0 0.0
15/12:30am 22.5 21.6 14.9 62 4.5 NNE 13 15 7 8 1021.8 1021.8 0.0
15/12:00am 22.8 22.2 14.6 60 4.8 NNE 11 15 6 8 1021.7 1021.7 0.0
 
Date/Time
EDT
Temp
°C
App
Temp
°C
Dew
Point
°C
Rel
Hum
%
Delta-T
°C
Wind Press
QNH
hPa
Press
MSL
hPa
Rain since
9am
mm
Dir  Spd
km/h
Gust
km/h
Spd
kts
Gust
kts
14/11:30pm 22.5 21.0 14.1 59 4.9 NNE 15 17 8 9 1021.7 1021.7 0.0
14/11:00pm 22.6 21.2 13.4 56 5.3 NNE 13 19 7 10 1021.6 1021.6 0.0
14/10:30pm 23.2 20.9 13.1 53 5.8 NNE 17 19 9 10 1021.5 1021.5 0.0
14/10:00pm 22.9 20.8 13.7 56 5.3 NNE 17 20 9 11 1021.3 1021.3 0.0
14/09:30pm 22.7 20.6 13.5 56 5.3 NNE 17 22 9 12 1020.8 1020.8 0.0
14/09:00pm 22.9 20.5 13.9 57 5.2 NNE 19 26 10 14 1020.3 1020.3 0.0
14/08:30pm 23.6 21.2 13.8 54 5.7 NNE 19 24 10 13 1019.8 1019.8 0.0
14/08:00pm 23.1 20.1 12.7 52 5.9 NE 20 28 11 15 1019.5 1019.5 0.0
14/07:30pm 23.5 19.5 11.9 48 6.6 NE 24 33 13 18 1019.1 1019.1 0.0
14/07:00pm 24.5 19.1 12.1 46 7.1 ENE 32 37 17 20 1018.7 1018.7 0.0
14/06:30pm 24.7 19.4 11.3 43 7.5 ENE 30 35 16 19 1018.6 1018.6 0.0
14/06:00pm 25.1 20.2 11.3 42 7.8 ENE 28 37 15 20 1018.3 1018.3 0.0
14/05:30pm 24.5 19.9 11.1 43 7.5 ENE 26 33 14 18 1018.2 1018.2 0.0
14/05:00pm 25.2 21.4 12.4 45 7.3 ENE 24 30 13 16 1018.2 1018.2 0.0
14/04:30pm 24.9 21.0 12.2 45 7.3 ENE 24 32 13 17 1018.2 1018.2 0.0
14/04:00pm 24.5 20.6 12.1 46 7.1 E 24 30 13 16 1018.3 1018.3 0.0
14/03:30pm 23.9 19.8 11.3 45 7.1 E 24 33 13 18 1018.4 1018.4 0.0
14/03:00pm 24.0 20.2 11.3 45 7.1 E 22 28 12 15 1018.5 1018.5 0.0
14/02:30pm 25.3 23.1 12.2 44 7.5 NE 15 22 8 12 1018.7 1018.7 0.0
14/02:00pm 24.3 21.4 12.3 47 6.8 E 19 28 10 15 1019.1 1019.1 0.0
14/01:30pm 22.9 20.9 13.9 57 5.3 SE 17 22 9 12 1019.4 1019.4 0.0
14/01:00pm 22.9 20.9 15.0 61 4.7 S 19 24 10 13 1019.6 1019.6 0.0
14/12:30pm 22.9 20.5 14.5 59 5.0 S 20 26 11 14 1019.9 1019.9 0.0
14/12:00pm 21.8 19.2 13.9 61 4.6 S 20 26 11 14 1020.1 1020.1 0.0
14/11:30am 22.5 20.1 15.4 64 4.2 S 22 28 12 15 1020.0 1020.0 0.0
14/11:00am 22.0 19.1 13.9 60 4.7 S 22 28 12 15 1020.1 1020.1 0.0
14/10:30am 21.3 18.2 13.5 61 4.5 S 22 33 12 18 1020.0 1020.0 0.0
14/10:00am 21.3 18.3 14.7 66 3.9 S 24 30 13 16 1019.7 1019.7 0.0
14/09:30am 20.6 17.1 14.5 68 3.6 S 26 32 14 17 1019.5 1019.5 0.0
14/09:00am 20.6 18.4 14.3 67 3.7 NNE 19 28 10 15 1019.2 1019.2 0.0
14/08:30am 18.9 17.6 12.6 67 3.5 WSW 11 15 6 8 1018.9 1018.9 0.0
14/08:00am 18.2 16.8 12.2 68 3.3 W 11 15 6 8 1018.6 1018.6 0.0
14/07:30am 18.1 16.0 11.2 64 3.7 W 13 17 7 9 1018.1 1018.1 0.0
14/07:00am 17.9 14.8 11.7 67 3.4 SW 19 24 10 13 1017.7 1017.7 0.0
14/06:30am 17.8 15.1 11.6 67 3.4 SW 17 20 9 11 1017.2 1017.2 0.0
14/06:00am 18.2 15.5 11.7 66 3.6 SW 17 26 9 14 1016.8 1016.8 0.0
14/05:30am 18.4 16.0 12.6 69 3.2 SW 17 20 9 11 1016.1 1016.1 0.0
14/05:00am 18.6 15.7 13.0 70 3.1 SW 20 28 11 15 1015.9 1015.9 0.0
14/04:30am 18.4 14.9 13.3 72 2.9 SW 24 30 13 16 1015.6 1015.6 0.0
14/04:00am 18.7 15.4 14.0 74 2.7 SW 24 28 13 15 1015.4 1015.4 0.0
14/03:30am 19.0 16.6 14.3 74 2.7 WSW 20 26 11 14 1015.4 1015.4 0.0
14/03:00am 19.4 16.6 14.4 73 2.9 SSW 22 28 12 15 1015.3 1015.3 0.0
14/02:30am 19.7 16.7 14.7 73 2.9 SW 24 30 13 16 1015.3 1015.3 0.0
14/02:00am 20.9 17.2 12.8 60 4.6 SSE 24 30 13 16 1015.3 1015.3 0.0
14/01:30am 20.9 19.2 13.6 63 4.2 SSE 15 22 8 12 1015.4 1015.4 0.0
14/01:00am 20.8 17.2 12.0 57 4.9 SSE 22 33 12 18 1015.3 1015.3 0.0
14/12:30am 21.1 17.3 12.3 57 5.0 SSE 24 32 13 17 1015.1 1015.1 0.0
14/12:00am 21.2 17.7 12.3 57 5.0 SE 22 30 12 16 1015.2 1015.2 0.0
 
Date/Time
EDT
Temp
°C
App
Temp
°C
Dew
Point
°C
Rel
Hum
%
Delta-T
°C
Wind Press
QNH
hPa
Press
MSL
hPa
Rain since
9am
mm
Dir  Spd
km/h
Gust
km/h
Spd
kts
Gust
kts
13/11:30pm 21.2 16.8 12.9 59 4.7 SE 28 33 15 18 1015.0 1015.0 0.0
13/11:00pm 21.1 16.4 12.0 56 5.1 SE 28 33 15 18 1014.8 1014.8 0.0
13/10:30pm 21.0 17.1 12.2 57 4.9 SE 24 33 13 18 1014.7 1014.7 0.0
13/10:00pm 21.1 15.6 11.7 55 5.2 SE 32 37 17 20 1014.5 1014.5 0.0
13/09:30pm 21.3 16.8 12.7 58 4.9 SE 28 35 15 19 1014.2 1014.2 0.0
13/09:00pm 21.4 16.1 12.5 57 5.0 SE 32 39 17 21 1013.5 1013.5 0.0
13/08:30pm 21.6 17.5 12.7 57 5.1 SE 26 35 14 19 1012.6 1012.6 0.0

Other Formats:

Comma delimited format used in spreadsheet applications
http://www.bom.gov.au/fwo/IDN60801/IDN60801.94767.axf

JavaScript Object Notation format (JSON) in row-major order
http://www.bom.gov.au/fwo/IDN60801/IDN60801.94767.json